createdAt,value
2022-09-20T03:17:30.505Z,100.00
2022-09-20T03:20:52.850Z,100.00
2022-09-20T03:24:14.745Z,100.00
2022-09-20T03:27:33.085Z,100.00
2022-09-20T03:30:56.163Z,100.00
2022-09-20T03:34:19.652Z,100.00
2022-09-20T03:37:46.396Z,100.00
2022-09-20T03:41:11.996Z,100.00
2022-09-20T03:44:48.025Z,100.00
2022-09-20T03:48:16.467Z,100.00
2022-09-20T03:51:34.367Z,100.00
2022-09-20T03:55:06.857Z,100.00
2022-09-20T03:58:28.009Z,100.00
2022-09-20T04:01:57.091Z,100.00
2022-09-20T04:05:13.287Z,100.00
2022-09-20T04:08:42.580Z,100.00
2022-09-20T04:12:00.302Z,100.00
2022-09-20T04:15:26.836Z,100.00
2022-09-20T04:18:44.491Z,100.00
2022-09-20T04:21:57.772Z,100.00
2022-09-20T04:25:18.032Z,100.00
2022-09-20T04:28:36.769Z,100.00
2022-09-20T04:31:54.078Z,100.00
2022-09-20T04:35:29.054Z,100.00
2022-09-20T04:38:39.133Z,100.00
2022-09-20T04:42:18.391Z,100.00
2022-09-20T04:45:53.319Z,100.00
2022-09-20T04:49:33.714Z,100.00
2022-09-20T04:53:07.396Z,100.00
2022-09-20T04:56:22.695Z,100.00
2022-09-20T04:59:53.044Z,100.00
2022-09-20T07:13:36.390Z,100.00
2022-09-20T07:16:46.130Z,100.00
2022-09-20T07:19:57.277Z,100.00
2022-09-20T07:23:06.829Z,100.00
2022-09-20T07:26:19.518Z,100.00
2022-09-20T07:29:31.384Z,100.00
2022-09-20T07:32:41.761Z,100.00
2022-09-20T07:35:53.736Z,100.00
2022-09-20T07:39:03.350Z,100.00
2022-09-20T07:42:12.929Z,100.00
2022-09-20T07:45:23.945Z,100.00
2022-09-20T07:48:36.207Z,100.00
2022-09-20T07:51:45.810Z,98.45
2022-09-20T07:54:56.146Z,96.27
2022-09-20T07:58:05.678Z,96.57
2022-09-20T08:01:16.615Z,95.85
2022-09-20T08:04:26.335Z,93.22
2022-09-20T08:07:36.050Z,90.73
2022-09-20T08:10:46.257Z,92.87
2022-09-20T08:14:06.246Z,93.54
2022-09-20T08:17:19.336Z,87.91
2022-09-20T08:20:28.892Z,88.39
2022-09-20T08:23:40.135Z,89.33
2022-09-20T08:26:49.687Z,87.10
2022-09-20T08:30:01.054Z,88.47
2022-09-20T08:33:13.114Z,86.13
2022-09-20T08:36:25.231Z,83.34
2022-09-20T08:43:05.563Z,77.25
2022-09-20T08:46:23.382Z,73.09
2022-09-20T08:49:34.879Z,69.75
2022-09-20T08:52:46.913Z,73.07
2022-09-20T08:55:57.923Z,74.38
2022-09-20T08:59:12.826Z,76.15
2022-09-20T09:02:23.137Z,75.26
2022-09-20T09:05:37.327Z,75.16
2022-09-20T09:08:51.938Z,73.46
2022-09-20T09:12:01.716Z,75.64
2022-09-20T09:15:25.505Z,75.37
2022-09-20T09:18:38.595Z,73.47
2022-09-20T09:21:49.439Z,71.97
2022-09-20T09:25:20.149Z,72.71
2022-09-20T09:28:32.485Z,67.78
2022-09-20T09:31:43.836Z,67.87
2022-09-20T09:34:53.606Z,69.28
2022-09-20T09:38:04.520Z,69.14
2022-09-20T09:41:25.247Z,68.51
2022-09-20T09:44:35.441Z,67.57
2022-09-20T09:47:46.219Z,66.19
2022-09-20T09:51:10.554Z,64.72
2022-09-20T09:54:21.627Z,67.18
2022-09-20T09:57:48.665Z,68.42
2022-09-20T10:01:02.507Z,71.16
2022-09-20T10:04:18.651Z,72.01
2022-09-20T10:07:34.957Z,75.89
2022-09-20T10:10:59.400Z,77.05
2022-09-20T10:14:24.601Z,76.51
2022-09-20T10:17:48.444Z,80.53
2022-09-20T10:21:14.730Z,80.25
2022-09-20T10:24:35.771Z,81.78
2022-09-20T10:28:00.987Z,82.01
2022-09-20T10:31:22.327Z,79.15
2022-09-20T10:34:53.580Z,74.21
2022-09-20T10:38:14.524Z,72.66
2022-09-20T10:41:48.444Z,70.55
2022-09-20T10:45:09.380Z,70.91
2022-09-20T10:48:26.377Z,69.30
2022-09-20T10:51:47.815Z,69.35
2022-09-20T10:55:09.737Z,70.14
2022-09-20T10:58:43.481Z,69.73
2022-09-20T11:02:10.469Z,69.95
2022-09-20T11:05:30.827Z,69.03
2022-09-20T11:08:41.903Z,69.56
2022-09-20T11:11:55.832Z,68.96
2022-09-20T11:15:15.383Z,68.49
2022-09-20T11:18:32.050Z,67.95
2022-09-20T11:21:48.090Z,69.08
2022-09-20T11:25:04.039Z,67.54
2022-09-20T11:28:20.645Z,62.08
2022-09-20T11:31:35.044Z,57.27
2022-09-20T11:34:53.454Z,58.85
2022-09-20T11:38:14.407Z,58.40
2022-09-20T11:41:27.410Z,62.72
2022-09-20T11:44:40.950Z,64.88
2022-09-20T11:47:56.194Z,63.73
2022-09-20T11:51:24.979Z,67.91
2022-09-20T11:54:54.588Z,68.42
2022-09-20T11:58:09.137Z,64.44
2022-09-20T12:01:28.675Z,64.83
2022-09-20T12:04:44.525Z,64.22
2022-09-20T12:07:59.277Z,61.68
2022-09-20T12:11:41.303Z,60.64
2022-09-20T12:14:56.339Z,60.12
2022-09-20T12:18:16.402Z,60.13
2022-09-20T12:21:27.373Z,61.88
2022-09-20T12:24:45.165Z,59.69
2022-09-20T12:27:58.577Z,58.05
2022-09-20T12:31:38.396Z,59.10
2022-09-20T12:34:48.555Z,56.09
2022-09-20T12:37:58.643Z,56.09
2022-09-20T12:41:14.185Z,53.62
2022-09-20T12:44:30.253Z,57.04
2022-09-20T12:47:40.390Z,57.87
2022-09-20T12:51:13.768Z,57.21
2022-09-20T12:54:23.766Z,56.98
2022-09-20T12:57:35.627Z,57.70
2022-09-20T13:00:48.703Z,57.47
2022-09-20T13:04:22.458Z,58.67
2022-09-20T13:07:43.207Z,60.40
2022-09-20T13:11:01.674Z,61.17
2022-09-20T13:14:15.708Z,59.02
2022-09-20T13:17:30.938Z,60.00
2022-09-20T13:20:42.785Z,62.39
2022-09-20T13:23:56.571Z,61.10
2022-09-20T13:27:09.853Z,63.50
2022-09-20T13:30:23.790Z,61.20
2022-09-20T13:33:33.846Z,64.00
2022-09-20T13:36:44.675Z,61.98
2022-09-20T13:39:55.848Z,63.18
2022-09-20T13:43:23.151Z,63.34
2022-09-20T13:46:35.385Z,62.24
2022-09-20T13:49:46.732Z,64.61
2022-09-20T13:52:59.781Z,62.44
2022-09-20T13:56:15.275Z,64.20
2022-09-20T13:59:27.591Z,62.60
2022-09-20T14:02:40.329Z,61.61
2022-09-20T14:05:52.730Z,61.24
2022-09-20T14:09:10.483Z,59.94
2022-09-20T14:12:22.728Z,60.82
2022-09-20T14:15:38.359Z,62.38
2022-09-20T14:18:50.311Z,62.81
2022-09-20T14:22:03.992Z,62.63
2022-09-20T14:25:22.644Z,62.18
2022-09-20T14:28:32.552Z,62.37
2022-09-20T14:31:48.167Z,64.15
2022-09-20T14:35:05.033Z,61.78
2022-09-20T14:38:17.276Z,61.37
2022-09-20T14:41:29.907Z,59.48
2022-09-20T14:44:40.645Z,60.51
2022-09-20T14:47:56.567Z,59.91
2022-09-20T14:51:23.372Z,60.51
2022-09-20T14:54:34.949Z,61.42
2022-09-20T14:57:46.237Z,60.58
2022-09-20T15:01:01.632Z,61.76
2022-09-20T15:04:20.975Z,62.31
2022-09-20T15:07:33.055Z,62.61
2022-09-20T15:10:43.026Z,63.30
2022-09-20T15:13:53.019Z,64.08
2022-09-20T15:17:03.096Z,62.85
2022-09-20T15:20:20.616Z,63.04
2022-09-20T15:23:35.615Z,63.63
2022-09-20T15:26:46.077Z,65.03
2022-09-20T15:29:56.084Z,66.27
2022-09-20T15:33:05.973Z,66.27
2022-09-20T15:36:15.860Z,67.21
2022-09-20T15:39:30.278Z,67.07
2022-09-20T15:42:41.946Z,68.27
2022-09-20T15:45:53.710Z,68.06
2022-09-20T15:49:06.708Z,67.95
2022-09-20T15:52:17.225Z,66.81
2022-09-20T15:55:28.482Z,67.71
2022-09-20T15:58:40.745Z,68.22
2022-09-20T16:01:51.679Z,68.13
2022-09-20T16:05:02.033Z,68.14
2022-09-20T16:08:11.906Z,69.41
2022-09-20T16:11:23.953Z,70.99
2022-09-20T16:14:33.965Z,70.40
2022-09-20T16:17:54.803Z,71.24
2022-09-20T16:21:07.993Z,71.06
2022-09-20T16:24:18.571Z,71.00
2022-09-20T16:27:34.136Z,73.01
2022-09-20T16:30:43.914Z,73.21
2022-09-20T16:33:53.797Z,71.97
2022-09-20T16:37:06.417Z,72.29
2022-09-20T16:40:16.626Z,73.29
2022-09-20T16:43:27.874Z,74.66
2022-09-20T16:47:02.624Z,73.32
2022-09-20T16:50:13.421Z,72.97
2022-09-20T16:53:23.773Z,73.95
2022-09-20T16:56:36.149Z,73.99
2022-09-20T16:59:47.982Z,75.99
2022-09-20T17:02:58.253Z,75.86
2022-09-20T17:06:09.195Z,76.13
2022-09-20T17:09:19.112Z,77.19
2022-09-20T17:12:32.894Z,77.48
2022-09-20T17:15:44.712Z,78.75
2022-09-20T17:19:02.029Z,80.06
2022-09-20T17:22:12.033Z,80.56
2022-09-20T17:25:21.855Z,81.02
2022-09-20T17:28:38.086Z,81.52
2022-09-20T17:31:55.773Z,81.77
2022-09-20T17:35:12.144Z,82.56
2022-09-20T17:38:23.026Z,83.18
2022-09-20T17:41:33.866Z,84.81
2022-09-20T17:44:43.706Z,85.30
2022-09-20T17:47:57.104Z,85.23
2022-09-20T17:51:12.398Z,86.06
2022-09-20T17:54:24.340Z,85.62
2022-09-20T17:57:34.332Z,85.81
2022-09-20T18:00:44.904Z,86.90
2022-09-20T18:03:58.062Z,87.14
2022-09-20T18:07:09.084Z,87.65
2022-09-20T18:10:18.858Z,88.01
2022-09-20T18:13:30.300Z,88.81
2022-09-20T18:16:40.431Z,88.72
2022-09-20T18:19:53.824Z,89.64
2022-09-20T18:23:03.639Z,90.72
2022-09-20T18:26:24.374Z,91.98
2022-09-20T18:29:36.887Z,93.18
2022-09-20T18:32:51.289Z,93.15
2022-09-20T18:36:04.626Z,92.54
2022-09-20T18:39:14.404Z,93.04
2022-09-20T18:42:24.182Z,93.64
2022-09-20T18:45:34.785Z,93.50
2022-09-20T18:48:45.053Z,93.95
2022-09-20T18:51:57.989Z,95.06
2022-09-20T18:55:09.149Z,96.02
2022-09-20T18:58:21.736Z,98.14
2022-09-20T19:01:48.381Z,97.90
2022-09-20T19:05:18.694Z,97.99
2022-09-20T19:08:37.231Z,98.50
2022-09-20T19:12:03.159Z,98.61
2022-09-20T19:15:29.763Z,98.01
2022-09-20T19:19:06.922Z,98.37
2022-09-20T19:22:24.202Z,98.50
2022-09-20T19:25:44.361Z,97.53
2022-09-20T19:28:56.078Z,97.41
2022-09-20T19:32:06.714Z,97.64
2022-09-20T19:35:22.471Z,98.07
2022-09-20T19:38:41.638Z,98.16
2022-09-20T19:42:00.919Z,98.88
2022-09-20T19:45:24.285Z,98.72
2022-09-20T19:48:39.442Z,99.12
2022-09-20T19:51:50.222Z,99.41
2022-09-20T19:55:00.606Z,99.47
2022-09-20T19:58:12.108Z,99.10
2022-09-20T20:01:23.373Z,99.58
2022-09-20T20:04:33.592Z,98.43
2022-09-20T20:07:50.939Z,98.72
2022-09-20T20:11:08.740Z,99.07
2022-09-20T20:14:29.606Z,99.31
2022-09-20T20:17:49.824Z,100.00
